Time;durP1;ratioP1;P1;durP2;ratioP2;P2;SDS_P1;SDS_P2;PMS_P1;PMS_P2;Temp;Humidity;BMP_temperature;BMP_pressure;BME280_temperature;BME280_humidity;BME280_pressure;Samples;Min_cycle;Max_cycle;Signal;HPM_P1;HPM_P2
2021/08/22 00:00:10;;;;;;;;;4.00;4.00;;;;;20.47;81.77;101397.59;5059945;28;45238;-64
2021/08/22 00:02:35;;;;;;;;;7.00;7.00;;;;;20.55;81.53;101394.47;5059613;28;45341;-63
2021/08/22 00:05:01;;;;;;;;;7.25;6.25;;;;;20.58;82.38;101394.31;5059698;28;45306;-65
2021/08/22 00:07:27;;;;;;;;;6.25;6.00;;;;;20.58;82.01;101399.59;5059962;28;45320;-64
2021/08/22 00:09:52;;;;;;;;;8.75;8.75;;;;;20.58;82.08;101392.50;5059462;28;45456;-63
2021/08/22 00:12:18;;;;;;;;;6.75;5.00;;;;;20.60;81.35;101395.06;5059046;28;45374;-62
2021/08/22 00:14:43;;;;;;;;;7.00;5.00;;;;;20.61;81.92;101387.03;5059652;28;45441;-65
2021/08/22 00:17:08;;;;;;;;;9.50;7.25;;;;;20.60;82.31;101385.34;5059910;28;45491;-65
2021/08/22 00:19:34;;;;;;;;;11.25;8.00;;;;;20.60;82.60;101384.50;5059456;28;45311;-65
2021/08/22 00:21:59;;;;;;;;;8.00;6.75;;;;;20.58;82.82;101394.31;5059559;28;45306;-65
2021/08/22 00:24:24;;;;;;;;;7.75;7.75;;;;;20.58;82.38;101389.03;5059252;28;45315;-65
2021/08/22 00:26:51;;;;;;;;;5.25;5.25;;;;;20.59;82.20;101393.34;5059345;28;45409;-65
2021/08/22 00:29:16;;;;;;;;;9.00;7.00;;;;;20.63;81.57;101394.91;5059446;28;45233;-65
2021/08/22 00:31:42;;;;;;;;;8.50;6.00;;;;;20.65;81.55;101396.50;5059367;28;47039;-65
2021/08/22 00:34:07;;;;;;;;;10.25;8.25;;;;;20.65;81.83;101399.16;5058049;28;45281;-65
2021/08/22 00:36:32;;;;;;;;;8.25;6.50;;;;;20.65;82.17;101393.03;5059425;28;45416;-65
2021/08/22 00:38:58;;;;;;;;;7.00;6.00;;;;;20.64;82.15;101396.59;5059199;28;45489;-65
2021/08/22 00:41:23;;;;;;;;;9.00;7.00;;;;;20.62;82.92;101401.09;5059162;28;47143;-65
2021/08/22 00:43:48;;;;;;;;;7.25;5.50;;;;;20.57;82.75;101400.53;5058922;28;45299;-65
2021/08/22 00:46:14;;;;;;;;;6.50;6.50;;;;;20.54;83.06;101398.91;5057986;28;45260;-65
2021/08/22 00:48:41;;;;;;;;;8.50;7.00;;;;;20.54;82.98;101398.06;5054574;28;45303;-66
2021/08/22 00:51:07;;;;;;;;;9.75;7.00;;;;;20.53;82.41;101399.84;5055482;28;45445;-66
2021/08/22 00:53:32;;;;;;;;;6.50;6.00;;;;;20.56;82.20;101406.75;5055907;28;45307;-66
2021/08/22 00:56:03;;;;;;;;;7.50;7.00;;;;;20.55;82.98;101399.75;5051769;28;45465;-66
2021/08/22 00:58:29;;;;;;;;;5.00;5.00;;;;;20.48;83.78;101403.72;5056262;28;45431;-66
2021/08/22 01:00:54;;;;;;;;;7.75;7.00;;;;;20.47;82.56;101407.31;5051859;28;45297;-65
2021/08/22 01:03:29;;;;;;;;;8.50;8.00;;;;;20.48;82.66;101414.28;5055058;28;45394;-66
2021/08/22 01:06:20;;;;;;;;;9.00;6.00;;;;;20.48;82.90;101414.28;5054300;28;45467;-66
2021/08/22 01:08:58;;;;;;;;;9.25;7.00;;;;;20.35;84.40;101407.03;5054389;28;45327;-66
2021/08/22 01:11:26;;;;;;;;;7.75;7.00;;;;;20.38;83.04;101411.28;5054528;28;46930;-66
2021/08/22 01:13:58;;;;;;;;;7.00;7.00;;;;;20.39;83.74;101412.13;5052568;28;45370;-65
2021/08/22 01:16:28;;;;;;;;;6.25;5.00;;;;;20.34;83.27;101410.59;5057705;28;45328;-66
2021/08/22 01:18:58;;;;;;;;;4.00;2.00;;;;;20.29;82.87;101407.38;5053542;28;45324;-67
2021/08/22 01:21:23;;;;;;;;;11.50;7.75;;;;;20.30;83.37;101419.66;5053093;28;45978;-67
2021/08/22 01:23:54;;;;;;;;;4.50;4.50;;;;;20.27;83.65;101421.63;5053341;28;45527;-65
2021/08/22 01:26:26;;;;;;;;;7.75;7.00;;;;;20.17;84.07;101416.00;5055482;28;45278;-65
2021/08/22 01:28:52;;;;;;;;;6.50;6.00;;;;;20.13;83.40;101429.47;5054711;28;45453;-65
2021/08/22 01:31:21;;;;;;;;;7.25;6.50;;;;;20.09;83.18;101426.13;5055305;28;46390;-65
2021/08/22 01:33:49;;;;;;;;;5.50;5.50;;;;;20.07;83.72;101425.38;5054250;28;45693;-65
2021/08/22 01:36:15;;;;;;;;;7.50;6.00;;;;;20.04;83.57;101425.56;5053655;28;45450;-67
2021/08/22 01:38:41;;;;;;;;;10.00;6.00;;;;;20.03;82.78;101427.34;5057897;28;45359;-67
2021/08/22 01:41:08;;;;;;;;;9.75;8.25;;;;;20.08;83.04;101429.72;5052372;28;46240;-67
2021/08/22 01:43:35;;;;;;;;;6.25;6.25;;;;;20.07;82.77;101437.72;5054508;28;45366;-67
2021/08/22 01:46:02;;;;;;;;;10.25;8.25;;;;;20.03;83.24;101427.34;5058005;28;45386;-67
2021/08/22 01:48:28;;;;;;;;;6.25;6.25;;;;;20.05;83.78;101428.09;5062104;28;45481;-67
2021/08/22 01:50:58;;;;;;;;;7.25;6.75;;;;;20.07;83.00;101422.75;5060838;28;46365;-64
2021/08/22 01:53:24;;;;;;;;;6.00;6.00;;;;;20.07;82.83;101430.66;5055181;28;45623;-65
2021/08/22 01:55:50;;;;;;;;;8.50;6.25;;;;;20.06;83.04;101423.69;5056226;28;45359;-65
2021/08/22 01:58:16;;;;;;;;;9.00;5.75;;;;;20.00;83.21;101424.00;5066251;28;45218;-65
2021/08/22 02:00:42;;;;;;;;;9.50;6.00;;;;;19.97;82.99;101424.19;5061743;28;45304;-65
2021/08/22 02:03:17;;;;;;;;;7.00;6.00;;;;;19.94;83.12;101421.72;5061178;28;45276;-65
2021/08/22 02:05:47;;;;;;;;;7.00;7.00;;;;;19.93;82.66;101420.88;5060951;28;45437;-65
2021/08/22 02:08:17;;;;;;;;;7.00;6.00;;;;;19.93;83.00;101439.34;5061495;28;45632;-65
2021/08/22 02:11:00;;;;;;;;;7.25;7.00;;;;;19.92;82.74;101435.00;5061149;28;45418;-65
2021/08/22 02:13:32;;;;;;;;;8.25;6.25;;;;;19.89;83.38;101439.59;5061241;28;45177;-65
2021/08/22 02:16:01;;;;;;;;;9.50;6.75;;;;;19.86;83.23;101430.06;5061620;28;45313;-65
2021/08/22 02:18:28;;;;;;;;;7.00;6.25;;;;;19.86;83.04;101440.63;5052294;28;45383;-65
2021/08/22 02:20:53;;;;;;;;;7.50;5.25;;;;;19.85;82.84;101438.06;5070447;28;45312;-65
2021/08/22 02:23:20;;;;;;;;;6.25;6.25;;;;;19.82;82.68;101439.06;5061538;28;45421;-65
2021/08/22 02:25:46;;;;;;;;;6.00;6.00;;;;;19.80;82.79;101440.94;5061104;28;45530;-63
2021/08/22 02:28:11;;;;;;;;;6.00;6.00;;;;;19.82;82.67;101446.97;5068308;28;45415;-64
2021/08/22 02:30:38;;;;;;;;;6.00;5.00;;;;;19.82;82.61;101444.34;5071868;28;46115;-63
2021/08/22 02:33:04;;;;;;;;;6.25;5.00;;;;;19.82;81.85;101446.13;5061420;28;45722;-63
2021/08/22 02:35:29;;;;;;;;;9.00;6.50;;;;;19.86;81.43;101448.53;5061110;28;45386;-62
2021/08/22 02:37:55;;;;;;;;;7.00;6.00;;;;;19.83;81.52;101451.34;5061338;28;45264;-66
2021/08/22 02:40:20;;;;;;;;;6.25;6.25;;;;;19.83;81.22;101448.72;5060693;28;45510;-64
2021/08/22 02:42:45;;;;;;;;;8.25;6.00;;;;;19.82;81.19;101432.94;5060877;28;45355;-65
2021/08/22 02:45:11;;;;;;;;;7.75;4.75;;;;;19.81;81.30;101449.69;5060866;28;45379;-63
2021/08/22 02:47:36;;;;;;;;;6.25;6.25;;;;;19.67;81.05;101437.28;5061020;28;45577;-62
2021/08/22 02:50:02;;;;;;;;;7.25;6.75;;;;;19.61;80.72;101445.50;5060672;28;46171;-63
2021/08/22 02:52:27;;;;;;;;;4.00;3.75;;;;;19.59;81.44;101440.31;5060654;28;45224;-62
2021/08/22 02:54:53;;;;;;;;;8.00;6.75;;;;;19.60;80.93;101447.28;5060781;28;45286;-62
2021/08/22 02:57:19;;;;;;;;;5.50;5.50;;;;;19.57;80.91;101449.25;5060217;28;45262;-62
2021/08/22 02:59:45;;;;;;;;;6.75;6.50;;;;;19.52;81.15;101452.09;5060843;28;46124;-62
2021/08/22 03:02:10;;;;;;;;;5.00;5.00;;;;;19.52;81.39;101443.34;5059358;28;45619;-62
2021/08/22 03:04:36;;;;;;;;;5.50;5.25;;;;;19.53;80.66;101450.31;5060867;28;45481;-63
2021/08/22 03:07:01;;;;;;;;;7.25;6.75;;;;;19.53;80.63;101442.41;5060503;28;45426;-62
2021/08/22 03:09:26;;;;;;;;;4.50;4.50;;;;;19.49;80.89;101447.00;5060350;28;45322;-62
2021/08/22 03:11:52;;;;;;;;;7.50;4.50;;;;;19.46;80.67;101444.53;5060010;28;45290;-62
2021/08/22 03:14:17;;;;;;;;;8.75;6.25;;;;;19.43;81.06;101447.34;5060721;28;45355;-63
2021/08/22 03:16:42;;;;;;;;;5.75;5.75;;;;;19.40;80.99;101436.91;5060363;28;45298;-63
2021/08/22 03:19:08;;;;;;;;;7.50;6.25;;;;;19.36;81.04;101440.66;5060504;28;46194;-63
2021/08/22 03:21:34;;;;;;;;;5.25;5.25;;;;;19.29;80.26;101429.59;5056236;28;45445;-63
2021/08/22 03:23:59;;;;;;;;;5.75;4.75;;;;;19.24;80.13;101443.97;5059827;28;45350;-63
2021/08/22 03:26:24;;;;;;;;;5.25;5.25;;;;;19.19;79.72;101435.41;5060233;28;45264;-63
2021/08/22 03:28:51;;;;;;;;;9.25;6.00;;;;;19.12;79.80;101430.47;5059884;28;45295;-63
2021/08/22 03:31:16;;;;;;;;;7.50;7.25;;;;;19.04;79.74;101437.94;5060181;28;45631;-63
2021/08/22 03:33:41;;;;;;;;;6.75;6.50;;;;;18.94;80.00;101436.69;5070091;28;45372;-62
2021/08/22 03:36:07;;;;;;;;;9.00;7.50;;;;;18.85;80.19;101439.81;5060008;28;45208;-62
2021/08/22 03:38:32;;;;;;;;;6.50;6.25;;;;;18.85;80.19;101445.09;5059880;28;46383;-62
2021/08/22 03:40:58;;;;;;;;;10.25;5.25;;;;;18.80;80.04;101442.66;5060004;28;45400;-62
2021/08/22 03:43:23;;;;;;;;;7.50;4.00;;;;;18.74;79.52;101437.72;5059858;28;45283;-62
2021/08/22 03:45:48;;;;;;;;;9.50;5.50;;;;;18.70;79.43;101445.84;5056590;28;45615;-65
2021/08/22 03:48:13;;;;;;;;;7.25;6.50;;;;;18.64;79.83;101436.47;5059770;28;46264;-65
2021/08/22 03:50:39;;;;;;;;;8.75;6.75;;;;;18.60;80.26;101440.13;5059582;28;45348;-65
2021/08/22 03:53:04;;;;;;;;;10.75;8.00;;;;;18.57;80.41;101436.81;5060011;28;45425;-65
2021/08/22 03:55:30;;;;;;;;;9.25;8.25;;;;;18.54;80.21;101438.66;5059717;28;45405;-65
2021/08/22 03:57:55;;;;;;;;;11.25;6.75;;;;;18.53;80.06;101436.97;5059567;28;46247;-65
2021/08/22 04:00:20;;;;;;;;;7.50;5.00;;;;;18.58;79.99;101441.13;5059870;28;45362;-65
2021/08/22 04:02:46;;;;;;;;;8.25;8.00;;;;;18.60;79.65;101441.91;5059728;28;45263;-65
2021/08/22 04:05:12;;;;;;;;;8.50;7.50;;;;;18.63;79.67;101444.47;5059415;28;45454;-65
2021/08/22 04:07:44;;;;;;;;;10.00;7.75;;;;;18.62;79.83;101448.84;5053302;28;47221;-65
2021/08/22 04:10:09;;;;;;;;;9.25;7.75;;;;;18.58;79.50;101451.66;5058954;28;45597;-63
2021/08/22 04:12:35;;;;;;;;;9.75;7.25;;;;;18.58;79.54;101454.31;5059114;28;45237;-64
2021/08/22 04:15:01;;;;;;;;;10.25;8.25;;;;;18.54;79.54;101457.09;5059303;28;45452;-63
2021/08/22 04:17:26;;;;;;;;;9.25;8.00;;;;;18.51;79.22;101456.41;5059427;28;45332;-64
2021/08/22 04:19:51;;;;;;;;;8.75;5.50;;;;;18.47;79.18;101460.13;5059655;28;45298;-66
2021/08/22 04:22:17;;;;;;;;;7.75;7.25;;;;;18.38;79.43;101442.97;5059926;28;45487;-65
2021/08/22 04:24:43;;;;;;;;;12.75;8.50;;;;;18.42;79.56;101462.09;5059336;28;45350;-64
2021/08/22 04:27:08;;;;;;;;;10.50;8.75;;;;;18.37;79.79;101453.56;5058848;28;46274;-63
2021/08/22 04:29:38;;;;;;;;;11.75;9.25;;;;;18.37;79.61;101457.06;5058401;28;45393;-65
2021/08/22 04:32:04;;;;;;;;;9.75;6.75;;;;;18.36;79.48;101449.25;5058923;28;45265;-65
2021/08/22 04:34:29;;;;;;;;;8.25;8.00;;;;;18.33;79.50;101452.03;5058646;28;45540;-65
2021/08/22 04:36:54;;;;;;;;;10.75;9.00;;;;;18.35;79.30;101456.28;5058753;28;46208;-67
2021/08/22 04:39:20;;;;;;;;;11.25;7.50;;;;;18.31;79.56;101457.38;5058363;28;45343;-66
2021/08/22 04:41:46;;;;;;;;;8.75;8.00;;;;;18.28;79.49;101457.53;5059083;28;45398;-66
2021/08/22 04:44:12;;;;;;;;;8.00;7.00;;;;;18.28;79.25;101449.63;5059116;28;45287;-66
2021/08/22 04:46:38;;;;;;;;;8.75;7.75;;;;;18.30;79.37;101452.19;5058946;28;45321;-65
2021/08/22 04:49:04;;;;;;;;;8.00;6.00;;;;;18.27;79.42;101457.59;5059306;28;45315;-68
2021/08/22 04:51:30;;;;;;;;;9.50;7.75;;;;;18.28;79.10;101457.53;5059163;28;45394;-66
2021/08/22 04:53:56;;;;;;;;;6.50;6.50;;;;;18.29;79.11;101467.13;5067993;28;45402;-66
2021/08/22 04:56:22;;;;;;;;;8.00;7.00;;;;;18.24;79.28;101464.72;5058727;28;46317;-66
2021/08/22 04:58:47;;;;;;;;;10.25;6.00;;;;;18.22;78.59;101463.94;5058702;28;45677;-65
2021/08/22 05:01:12;;;;;;;;;10.00;8.50;;;;;18.18;78.89;101462.34;5059405;28;45309;-67
2021/08/22 05:03:38;;;;;;;;;7.25;6.00;;;;;18.15;78.74;101462.50;5058870;28;45649;-66
2021/08/22 05:06:03;;;;;;;;;12.50;8.75;;;;;18.15;79.18;101480.06;5056560;28;45285;-66
2021/08/22 05:08:28;;;;;;;;;8.25;7.00;;;;;18.10;78.71;101472.41;5058598;28;45422;-66
2021/08/22 05:10:55;;;;;;;;;2.75;1.75;;;;;18.13;78.70;101467.00;5058408;28;45346;-66
2021/08/22 05:13:21;;;;;;;;;8.00;6.00;;;;;18.09;78.83;101467.22;5058542;28;45425;-64
2021/08/22 05:15:46;;;;;;;;;8.25;6.00;;;;;18.11;78.58;101476.72;5058656;28;46570;-63
2021/08/22 05:18:11;;;;;;;;;8.00;6.75;;;;;18.11;78.63;101476.72;5058515;28;45396;-63
2021/08/22 05:20:37;;;;;;;;;9.50;7.25;;;;;18.10;78.48;101471.53;5074424;28;45274;-63
2021/08/22 05:23:02;;;;;;;;;7.25;6.25;;;;;18.09;78.33;101475.94;5058681;28;45283;-62
2021/08/22 05:25:27;;;;;;;;;8.00;6.00;;;;;18.10;78.40;101488.19;5058529;28;45347;-64
2021/08/22 05:27:53;;;;;;;;;10.25;8.00;;;;;18.13;78.30;101481.91;5058266;28;45300;-64
2021/08/22 05:30:18;;;;;;;;;5.75;4.25;;;;;18.19;78.43;101489.50;5058947;28;45588;-65
2021/08/22 05:32:44;;;;;;;;;12.00;7.25;;;;;18.22;77.91;101484.13;5058696;28;45232;-63
2021/08/22 05:35:09;;;;;;;;;7.50;7.00;;;;;18.21;78.27;101479.75;5058393;28;45327;-64
2021/08/22 05:37:35;;;;;;;;;8.50;7.25;;;;;18.24;77.55;101480.50;5058029;28;46462;-63
2021/08/22 05:40:00;;;;;;;;;6.75;5.50;;;;;18.22;77.46;101471.84;5074124;28;45281;-62
2021/08/22 05:42:25;;;;;;;;;12.00;7.75;;;;;18.23;77.65;101481.44;5061548;28;45289;-64
2021/08/22 05:44:50;;;;;;;;;6.25;5.00;;;;;18.23;77.30;101472.69;5061796;28;45338;-63
2021/08/22 05:47:20;;;;;;;;;7.50;6.25;;;;;18.26;77.26;101483.06;5061757;28;45343;-63
2021/08/22 05:49:47;;;;;;;;;11.00;6.00;;;;;18.26;77.38;101482.19;5070339;27;45185;-62
2021/08/22 05:52:13;;;;;;;;;9.50;7.75;;;;;18.28;76.91;101483.84;5063374;28;45452;-62
2021/08/22 05:54:39;;;;;;;;;7.50;6.00;;;;;18.28;76.94;101491.72;5061379;28;46183;-62
2021/08/22 05:57:04;;;;;;;;;6.75;6.75;;;;;18.34;76.78;101501.09;5061398;28;45330;-63
2021/08/22 05:59:29;;;;;;;;;8.00;5.25;;;;;18.31;77.05;101482.81;5061812;28;45541;-65
2021/08/22 06:01:55;;;;;;;;;8.00;6.00;;;;;18.43;76.51;101498.03;5061569;28;45398;-63
2021/08/22 06:04:20;;;;;;;;;7.25;5.75;;;;;18.49;76.70;101501.22;5061406;28;45334;-64
2021/08/22 06:06:46;;;;;;;;;7.00;5.50;;;;;18.50;76.25;101509.97;5061376;28;45214;-64
2021/08/22 06:09:11;;;;;;;;;5.00;5.00;;;;;18.44;75.98;101499.75;5061299;28;45755;-64
2021/08/22 06:11:37;;;;;;;;;5.75;5.50;;;;;18.47;76.14;101500.44;5060980;28;45271;-63
2021/08/22 06:14:02;;;;;;;;;7.00;5.00;;;;;18.47;76.13;101508.34;5061127;28;45885;-63
2021/08/22 06:16:28;;;;;;;;;7.25;5.00;;;;;18.45;76.59;101512.84;5061314;28;45359;-62
2021/08/22 06:18:53;;;;;;;;;7.75;6.75;;;;;18.43;76.28;101517.31;5061461;28;45404;-64
2021/08/22 06:21:18;;;;;;;;;6.25;6.25;;;;;18.38;76.65;101521.94;5061375;28;45225;-63
2021/08/22 06:23:44;;;;;;;;;7.75;5.50;;;;;18.37;76.11;101522.84;5056891;28;45246;-63
2021/08/22 06:26:09;;;;;;;;;5.00;3.75;;;;;18.44;76.54;101516.41;5061191;28;45228;-63
2021/08/22 06:28:35;;;;;;;;;6.50;5.00;;;;;18.49;76.19;101522.28;5056928;28;45208;-63
2021/08/22 06:31:00;;;;;;;;;5.00;5.00;;;;;18.53;76.03;101512.44;5055040;28;45265;-63
2021/08/22 06:33:25;;;;;;;;;7.25;6.00;;;;;18.64;75.96;101517.25;5049092;28;45493;-64
2021/08/22 06:35:51;;;;;;;;;8.00;6.50;;;;;18.73;75.46;101524.69;5056079;28;45409;-63
2021/08/22 06:38:16;;;;;;;;;5.25;5.25;;;;;18.80;75.75;101524.28;5055100;28;45479;-63
2021/08/22 06:40:41;;;;;;;;;5.50;4.00;;;;;18.81;75.56;101527.78;5061137;28;45314;-63
2021/08/22 06:43:07;;;;;;;;;8.25;8.25;;;;;18.84;75.41;101532.91;5058814;28;46257;-63
2021/08/22 06:45:32;;;;;;;;;6.00;6.00;;;;;18.84;74.99;101539.03;5060639;28;45501;-63
2021/08/22 06:47:58;;;;;;;;;7.75;4.00;;;;;18.84;75.41;101546.94;5052243;28;45508;-63
2021/08/22 06:50:26;;;;;;;;;7.25;5.00;;;;;18.84;75.07;101538.19;5069561;28;45449;-63
2021/08/22 06:52:52;;;;;;;;;6.50;5.25;;;;;18.85;75.37;101542.53;5057245;28;47458;-62
2021/08/22 06:55:18;;;;;;;;;6.00;6.00;;;;;18.88;74.99;101546.78;5052284;28;45252;-62
2021/08/22 06:57:43;;;;;;;;;7.75;6.25;;;;;18.96;75.54;101548.09;5057499;28;45307;-65
2021/08/22 07:00:09;;;;;;;;;8.00;6.00;;;;;18.95;74.90;101551.66;5052780;28;45235;-65
2021/08/22 07:02:35;;;;;;;;;7.75;6.75;;;;;18.98;74.72;101558.56;5051946;28;46142;-66
2021/08/22 07:05:00;;;;;;;;;9.75;7.00;;;;;19.06;75.38;101561.69;5054361;28;45357;-63
2021/08/22 07:07:26;;;;;;;;;4.50;4.50;;;;;19.09;75.12;101558.91;5054807;28;45394;-63
2021/08/22 07:09:51;;;;;;;;;8.00;4.75;;;;;19.10;74.22;101556.19;5054233;28;45435;-62
2021/08/22 07:12:16;;;;;;;;;4.50;4.50;;;;;19.12;74.44;101558.72;5053602;28;46197;-62
2021/08/22 07:14:42;;;;;;;;;6.25;6.00;;;;;19.21;73.93;101562.69;5055033;28;45339;-64
2021/08/22 07:17:08;;;;;;;;;9.00;6.00;;;;;19.24;73.74;101563.41;5051797;28;45471;-66
2021/08/22 07:19:33;;;;;;;;;7.25;5.25;;;;;19.23;73.79;101566.13;5052575;28;45489;-66
2021/08/22 07:21:58;;;;;;;;;6.00;5.00;;;;;19.30;73.79;101570.13;5053794;28;45708;-67
2021/08/22 07:24:23;;;;;;;;;7.00;5.50;;;;;19.40;73.67;101572.22;5054118;28;45326;-65
2021/08/22 07:26:49;;;;;;;;;7.50;5.50;;;;;19.48;72.85;101566.56;5051355;28;45385;-64
2021/08/22 07:29:14;;;;;;;;;7.00;4.75;;;;;19.52;72.35;101567.25;5054988;28;46386;-68
2021/08/22 07:31:40;;;;;;;;;6.00;5.50;;;;;19.53;71.76;101575.09;5050649;28;46165;-67
2021/08/22 07:34:05;;;;;;;;;5.50;3.75;;;;;19.48;72.57;101577.13;5053828;28;45328;-69
2021/08/22 07:36:30;;;;;;;;;5.25;5.00;;;;;19.54;72.34;101582.09;5051362;28;45262;-68
2021/08/22 07:38:56;;;;;;;;;4.50;4.25;;;;;19.60;72.19;101578.28;5052351;28;45512;-68
2021/08/22 07:41:21;;;;;;;;;6.25;4.50;;;;;19.61;71.77;101565.00;5053967;28;46120;-68
2021/08/22 07:43:46;;;;;;;;;3.25;2.50;;;;;19.66;71.62;101576.19;5054460;28;45466;-68
2021/08/22 07:46:12;;;;;;;;;5.00;4.50;;;;;19.72;71.66;101582.94;5053680;28;45360;-68
2021/08/22 07:48:37;;;;;;;;;5.75;5.25;;;;;19.74;71.20;101573.16;5056232;28;45568;-68
2021/08/22 07:51:02;;;;;;;;;6.75;5.00;;;;;19.72;71.57;101577.66;5054135;28;46036;-68
2021/08/22 07:53:28;;;;;;;;;5.00;5.00;;;;;19.69;71.21;101581.31;5054564;28;45360;-68
2021/08/22 07:55:53;;;;;;;;;5.00;4.00;;;;;19.74;70.91;101576.63;5053593;28;45409;-68
2021/08/22 07:58:18;;;;;;;;;4.75;3.75;;;;;19.85;70.88;101578.72;5055288;28;45524;-68
2021/08/22 08:00:44;;;;;;;;;5.25;3.50;;;;;20.05;70.48;101588.22;5048103;28;45669;-68
2021/08/22 08:03:10;;;;;;;;;6.00;4.00;;;;;20.20;69.96;101591.78;5053495;28;45460;-68
2021/08/22 08:05:35;;;;;;;;;4.00;4.00;;;;;20.35;68.68;101593.63;5054659;28;45335;-69
2021/08/22 08:08:01;;;;;;;;;5.25;3.75;;;;;20.49;67.98;101580.53;5052577;28;45625;-68
2021/08/22 08:10:27;;;;;;;;;4.50;3.50;;;;;20.55;67.96;101593.41;5049753;28;45437;-68
2021/08/22 08:12:52;;;;;;;;;5.50;3.25;;;;;20.63;67.12;101588.56;5051065;28;45429;-68
2021/08/22 08:15:17;;;;;;;;;7.50;4.50;;;;;20.60;67.04;101591.34;5050851;28;45464;-63
2021/08/22 08:17:45;;;;;;;;;7.00;3.00;;;;;20.65;67.53;101599.88;5066709;27;45891;-63
2021/08/22 08:20:11;;;;;;;;;3.25;2.25;;;;;20.74;65.68;101602.94;5052349;28;46306;-63
2021/08/22 08:22:36;;;;;;;;;4.25;3.00;;;;;20.76;66.55;101609.84;5059621;28;45367;-63
2021/08/22 08:25:02;;;;;;;;;3.50;3.25;;;;;20.81;66.89;101607.78;5056419;28;45274;-64
2021/08/22 08:27:27;;;;;;;;;2.25;2.00;;;;;20.91;66.11;101608.97;5065198;28;45385;-64
2021/08/22 08:29:53;;;;;;;;;1.75;1.00;;;;;20.98;65.66;101605.97;5059013;28;47228;-65
2021/08/22 08:32:18;;;;;;;;;6.25;3.25;;;;;21.00;64.86;101614.66;5051029;28;45260;-63
2021/08/22 08:34:44;;;;;;;;;6.00;3.00;;;;;21.00;65.08;101617.31;5059817;28;45706;-63
2021/08/22 08:37:09;;;;;;;;;3.75;3.00;;;;;20.90;65.21;101604.63;5068809;28;45390;-63
2021/08/22 08:39:35;;;;;;;;;3.00;2.75;;;;;20.83;65.22;101616.50;5054648;28;45236;-63
2021/08/22 08:42:23;;;;;;;;;6.00;4.25;;;;;20.87;65.52;101614.53;5057596;28;45221;-61
2021/08/22 08:44:52;;;;;;;;;5.00;3.25;;;;;21.01;64.89;101603.16;5059394;28;45318;-62
2021/08/22 08:47:19;;;;;;;;;4.00;3.00;;;;;21.29;64.04;101611.25;5056656;28;45454;-60
2021/08/22 08:50:02;;;;;;;;;3.00;3.00;;;;;21.52;62.94;101628.41;5053986;28;47508;-60
2021/08/22 08:52:32;;;;;;;;;5.00;2.75;;;;;21.60;62.95;101614.69;5063906;28;45275;-60
2021/08/22 08:55:01;;;;;;;;;5.00;3.25;;;;;21.73;61.61;101621.81;5061611;28;45331;-61
2021/08/22 08:57:26;;;;;;;;;5.00;3.25;;;;;21.84;61.52;101610.59;5049985;28;45415;-61
2021/08/22 08:59:52;;;;;;;;;8.00;4.50;;;;;21.97;60.52;101614.19;5059274;28;45465;-62
2021/08/22 09:02:17;;;;;;;;;4.00;3.00;;;;;22.09;60.03;101612.63;5059559;28;45377;-62
2021/08/22 09:04:42;;;;;;;;;4.25;4.25;;;;;22.14;59.65;101621.97;5055702;28;45278;-62
2021/08/22 09:07:33;;;;;;;;;5.67;4.67;;;;;22.19;60.69;101618.19;5054781;28;45506;-62
2021/08/22 09:10:29;;;;;;;;;3.25;3.25;;;;;22.26;59.08;101615.09;5047033;28;46076;-61
2021/08/22 09:13:09;;;;;;;;;4.75;3.50;;;;;22.27;58.01;101615.94;5049806;28;45678;-63
2021/08/22 09:15:53;;;;;;;;;4.25;3.00;;;;;22.24;58.40;101618.78;5049562;28;46306;-62
2021/08/22 09:19:02;;;;;;;;;5.00;2.50;;;;;22.25;58.17;101623.97;5056475;28;45558;-63
2021/08/22 09:22:05;;;;;;;;;1.75;1.75;;;;;22.38;57.47;101618.75;5047322;28;46452;-62
2021/08/22 09:24:30;;;;;;;;;3.00;2.75;;;;;22.41;57.15;101623.84;5054477;28;45647;-62
2021/08/22 09:27:34;;;;;;;;;5.25;3.25;;;;;22.49;56.68;101618.06;5067592;27;45572;-62
2021/08/22 09:29:59;;;;;;;;;3.00;2.25;;;;;22.42;56.97;101609.66;5056649;28;45595;-59
2021/08/22 09:33:02;;;;;;;;;4.00;3.50;;;;;22.36;57.21;101623.28;5055669;28;46081;-62
2021/08/22 09:36:05;;;;;;;;;3.00;3.00;;;;;22.25;57.36;101626.63;5054429;28;45380;-62
2021/08/22 09:39:08;;;;;;;;;3.00;2.00;;;;;22.04;57.25;101622.63;5056382;28;45300;-62
2021/08/22 09:42:27;;;;;;;;;2.00;2.00;;;;;21.94;57.44;101624.97;5052891;28;45407;-63
2021/08/22 09:45:30;;;;;;;;;3.00;2.00;;;;;21.96;57.91;101631.00;5067658;27;47472;-63
2021/08/22 09:48:19;;;;;;;;;3.00;2.25;;;;;21.86;58.46;101606.06;5060919;28;45363;-61
2021/08/22 09:51:03;;;;;;;;;2.50;2.00;;;;;21.84;58.71;101629.13;5038231;28;45565;-60
2021/08/22 09:53:47;;;;;;;;;3.00;2.00;;;;;21.82;59.19;101636.28;5059986;28;45299;-64
2021/08/22 09:56:53;;;;;;;;;4.75;2.50;;;;;21.88;59.44;101637.72;5058075;28;46543;-63
